createdAt,value
2022-11-18T00:02:03.002Z,6.43
2022-11-18T00:04:30.361Z,2.10
2022-11-18T00:06:59.262Z,4.63
2022-11-18T00:12:58.889Z,2.53
2022-11-18T00:15:51.723Z,5.20
2022-11-18T00:18:25.388Z,15.43
2022-11-18T00:21:06.667Z,3.47
2022-11-18T00:24:19.632Z,7.67
2022-11-18T00:27:43.448Z,6.03
2022-11-18T00:31:12.525Z,3.17
2022-11-18T00:34:05.811Z,5.80
2022-11-18T00:37:15.071Z,4.57
2022-11-18T00:40:13.279Z,7.73
2022-11-18T00:46:09.761Z,9.47
2022-11-18T00:49:48.089Z,8.70
2022-11-18T01:06:57.489Z,5.83
2022-11-18T01:16:51.303Z,10.57
2022-11-18T01:23:14.256Z,8.30
2022-11-18T01:25:43.751Z,12.20
2022-11-18T01:28:11.468Z,10.10
2022-11-18T01:30:39.901Z,6.67
2022-11-18T01:33:08.180Z,5.67
2022-11-18T01:35:35.920Z,2.63
2022-11-18T01:38:03.949Z,2.67
2022-11-18T01:40:32.525Z,4.23
2022-11-18T01:43:00.738Z,4.37
2022-11-18T01:50:40.800Z,5.53
2022-11-18T01:53:12.761Z,2.47
2022-11-18T01:55:45.420Z,6.50
2022-11-18T01:58:18.411Z,5.33
2022-11-18T02:00:48.430Z,4.07
2022-11-18T02:03:19.601Z,3.87
2022-11-18T02:05:49.940Z,5.03
2022-11-18T02:11:03.268Z,5.80
2022-11-18T02:13:31.821Z,4.60
2022-11-18T02:16:07.508Z,5.90
2022-11-18T02:18:46.776Z,8.70
2022-11-18T02:21:29.331Z,2.70
2022-11-18T02:24:26.580Z,6.00
2022-11-18T02:33:35.763Z,7.43
2022-11-18T02:36:08.720Z,4.03
2022-11-18T02:38:44.069Z,4.77
2022-11-18T02:41:17.570Z,5.40
2022-11-18T02:43:48.308Z,7.50
2022-11-18T02:46:21.181Z,2.47
2022-11-18T02:48:52.261Z,1.33
2022-11-18T02:56:31.947Z,3.70
2022-11-18T02:58:59.530Z,3.07
2022-11-18T03:01:30.484Z,3.17
2022-11-18T03:03:58.357Z,2.80
2022-11-18T03:06:34.741Z,2.93
2022-11-18T03:09:12.800Z,2.00
2022-11-18T03:12:00.391Z,3.30
2022-11-18T03:57:25.880Z,5.87
2022-11-18T03:59:59.500Z,8.60
2022-11-18T04:02:29.473Z,10.67
2022-11-18T04:04:58.269Z,9.57
2022-11-18T04:07:32.000Z,7.13
2022-11-18T04:10:06.399Z,13.20
2022-11-18T04:12:42.728Z,6.83
2022-11-18T04:20:17.371Z,178.10
2022-11-18T04:22:44.706Z,233.17
2022-11-18T04:25:12.428Z,10.77
2022-11-18T04:27:40.188Z,3.70
2022-11-18T04:30:09.419Z,15.30
2022-11-18T04:32:37.299Z,15.43
2022-11-18T04:35:06.160Z,11.20
2022-11-18T04:42:39.388Z,17.60
2022-11-18T04:45:08.711Z,12.70
2022-11-18T04:47:36.389Z,16.80
2022-11-18T04:50:04.580Z,12.10
2022-11-18T04:52:32.200Z,11.70
2022-11-18T04:54:59.612Z,11.10
2022-11-18T04:57:26.990Z,138.70
2022-11-18T05:02:36.401Z,50.00
2022-11-18T05:05:04.278Z,11.60
2022-11-18T05:07:31.796Z,28.33
2022-11-18T05:09:59.312Z,41.83
2022-11-18T05:12:47.220Z,253.20
2022-11-18T05:15:14.771Z,285.17
2022-11-18T05:17:44.060Z,381.13
2022-11-18T05:20:13.408Z,323.80
2022-11-18T05:27:45.938Z,287.97
2022-11-18T05:30:15.034Z,220.30
2022-11-18T05:32:42.324Z,173.20
2022-11-18T05:35:10.750Z,74.50
2022-11-18T05:37:38.017Z,113.83
2022-11-18T05:40:06.491Z,105.93
2022-11-18T05:42:51.540Z,146.23
2022-11-18T05:45:20.317Z,231.03
2022-11-18T05:50:27.138Z,184.97
2022-11-18T05:52:55.119Z,238.93
2022-11-18T05:55:26.454Z,188.37
2022-11-18T05:57:53.880Z,58.50
2022-11-18T06:00:22.623Z,247.27
2022-11-18T06:02:52.284Z,266.90
2022-11-18T06:05:22.216Z,199.67
2022-11-18T06:13:43.131Z,97.90
2022-11-18T06:16:13.119Z,173.10
2022-11-18T06:18:42.771Z,74.90
2022-11-18T06:21:10.965Z,91.30
2022-11-18T06:23:43.879Z,6.60
2022-11-18T06:26:11.839Z,38.67
2022-11-18T06:28:41.530Z,3.63
2022-11-18T06:46:59.149Z,22.80
2022-11-18T06:49:35.144Z,32.13
2022-11-18T06:52:02.403Z,23.10
2022-11-18T06:54:30.141Z,37.30
2022-11-18T06:56:57.819Z,171.60
2022-11-18T06:59:25.262Z,229.47
2022-11-18T07:01:56.629Z,416.73
2022-11-18T07:12:07.024Z,237.00
2022-11-18T07:14:34.693Z,305.43
2022-11-18T07:17:01.991Z,362.17
2022-11-18T07:19:35.467Z,282.47
2022-11-18T07:22:04.519Z,239.03
2022-11-18T07:24:32.317Z,220.00
2022-11-18T07:27:00.018Z,252.53
2022-11-18T07:37:27.301Z,18.50
2022-11-18T07:39:55.188Z,34.70
2022-11-18T07:42:22.838Z,39.00
2022-11-18T07:44:50.615Z,32.60
2022-11-18T07:47:18.032Z,33.40
2022-11-18T07:49:45.320Z,42.63
2022-11-18T07:52:13.294Z,30.07
2022-11-18T08:12:58.610Z,40.07
2022-11-18T08:15:26.241Z,56.60
2022-11-18T08:17:53.480Z,46.80
2022-11-18T08:20:21.510Z,135.97
2022-11-18T08:22:48.910Z,28.67
2022-11-18T08:25:16.510Z,20.53
2022-11-18T08:27:44.188Z,22.07
2022-11-18T08:38:15.438Z,17.07
2022-11-18T08:40:45.368Z,23.87
2022-11-18T08:43:13.268Z,15.90
2022-11-18T08:45:42.292Z,25.77
2022-11-18T08:48:10.076Z,130.53
2022-11-18T08:50:37.809Z,99.10
2022-11-18T08:53:05.220Z,25.80
2022-11-18T09:14:20.394Z,23.53
2022-11-18T09:16:47.778Z,14.43
2022-11-18T09:19:48.192Z,20.17
2022-11-18T09:22:16.210Z,13.23
2022-11-18T09:24:46.251Z,14.97
2022-11-18T09:27:53.319Z,13.57
2022-11-18T09:30:23.108Z,16.17
2022-11-18T09:33:06.971Z,21.53
2022-11-18T09:36:08.190Z,24.83
2022-11-18T09:39:05.379Z,20.60
2022-11-18T09:49:56.450Z,18.03
2022-11-18T09:56:16.383Z,29.20
2022-11-18T10:05:24.566Z,22.13
2022-11-18T10:08:33.560Z,27.73
2022-11-18T10:11:19.592Z,20.00
2022-11-18T10:25:54.192Z,15.07
2022-11-18T10:28:24.646Z,13.23
2022-11-18T10:30:53.054Z,12.07
2022-11-18T10:33:26.822Z,16.77
2022-11-18T10:36:11.729Z,10.93
2022-11-18T10:38:39.698Z,12.47
2022-11-18T10:41:13.361Z,9.00
2022-11-18T10:59:32.491Z,12.13
2022-11-18T11:02:09.485Z,12.23
2022-11-18T11:04:38.370Z,15.43
2022-11-18T11:07:25.756Z,9.83
2022-11-18T11:10:23.785Z,9.50
2022-11-18T11:12:57.784Z,12.90
2022-11-18T11:15:34.409Z,15.43
2022-11-18T11:23:26.841Z,9.60
2022-11-18T11:28:56.224Z,12.57
2022-11-18T11:31:30.601Z,16.90
2022-11-18T11:34:03.388Z,9.10
2022-11-18T11:36:42.642Z,16.00
2022-11-18T11:39:45.389Z,11.03
2022-11-18T12:00:24.408Z,7.20
2022-11-18T12:03:04.903Z,8.40
2022-11-18T12:05:36.242Z,8.67
2022-11-18T12:08:09.392Z,10.60
2022-11-18T12:10:45.871Z,9.60
2022-11-18T12:13:38.373Z,8.67
2022-11-18T12:16:18.810Z,7.37
2022-11-18T12:22:03.329Z,6.43
2022-11-18T12:24:39.839Z,7.03
2022-11-18T12:27:41.304Z,7.20
2022-11-18T12:30:19.789Z,7.23
2022-11-18T12:32:57.468Z,4.77
2022-11-18T12:35:28.870Z,5.27
2022-11-18T12:38:03.499Z,10.43
2022-11-18T12:56:23.068Z,4.03
2022-11-18T12:58:53.260Z,5.10
2022-11-18T13:01:23.331Z,6.40
2022-11-18T13:03:51.017Z,14.10
2022-11-18T13:06:30.376Z,9.40
2022-11-18T13:09:00.985Z,5.13
2022-11-18T13:11:46.841Z,18.00
2022-11-18T13:19:40.489Z,5.50
2022-11-18T13:22:35.861Z,6.87
2022-11-18T13:25:03.377Z,3.83
2022-11-18T13:27:49.460Z,5.63
2022-11-18T13:30:21.288Z,5.43
2022-11-18T13:32:58.373Z,5.77
2022-11-18T13:35:29.644Z,9.10
2022-11-18T13:37:58.946Z,6.03
2022-11-18T13:45:34.355Z,10.03
2022-11-18T13:48:07.977Z,5.23
2022-11-18T13:50:37.738Z,6.60
2022-11-18T13:53:24.465Z,6.77
2022-11-18T13:55:55.258Z,11.03
2022-11-18T13:58:40.043Z,4.37
2022-11-18T14:01:21.782Z,4.70
2022-11-18T14:11:36.736Z,2.47
2022-11-18T14:14:04.509Z,5.00
2022-11-18T14:16:34.446Z,4.87
2022-11-18T14:19:04.235Z,9.23
2022-11-18T14:21:36.436Z,7.17
2022-11-18T14:24:05.176Z,4.17
2022-11-18T14:26:36.021Z,8.07
2022-11-18T14:29:20.714Z,13.43
2022-11-18T14:39:31.527Z,4.73
2022-11-18T14:42:00.439Z,11.67
2022-11-18T14:44:30.379Z,6.57
2022-11-18T14:47:00.639Z,10.17
2022-11-18T14:49:31.014Z,17.83
2022-11-18T14:52:02.184Z,9.13
2022-11-18T14:54:31.129Z,10.63
2022-11-18T15:04:50.208Z,5.67
2022-11-18T15:07:23.396Z,8.60
2022-11-18T15:09:59.087Z,10.47
2022-11-18T15:12:27.025Z,5.57
2022-11-18T15:14:55.365Z,5.87
2022-11-18T15:17:24.468Z,9.97
2022-11-18T15:19:56.765Z,5.87
2022-11-18T15:22:25.695Z,4.50
2022-11-18T15:31:32.687Z,3.83
2022-11-18T15:34:06.954Z,6.10
2022-11-18T15:36:46.277Z,5.63
2022-11-18T15:39:23.501Z,4.87
2022-11-18T15:41:51.739Z,5.30
2022-11-18T15:45:11.444Z,2.53
2022-11-18T15:47:46.057Z,5.27
2022-11-18T15:50:19.927Z,6.17
2022-11-18T15:53:09.637Z,14.50
2022-11-18T15:55:52.578Z,5.63
2022-11-18T16:14:01.699Z,7.23
2022-11-18T16:16:31.065Z,2.30
2022-11-18T16:19:05.547Z,4.90
2022-11-18T16:21:35.680Z,7.40
2022-11-18T16:24:06.600Z,5.37
2022-11-18T16:26:36.991Z,6.47
2022-11-18T16:29:07.179Z,5.33
2022-11-18T16:49:57.650Z,7.80
2022-11-18T16:52:28.148Z,6.43
2022-11-18T16:55:00.527Z,5.03
2022-11-18T16:57:28.478Z,7.47
2022-11-18T16:59:58.549Z,4.57
2022-11-18T17:02:30.444Z,4.73
2022-11-18T17:05:06.109Z,7.63
2022-11-18T17:20:53.860Z,11.63
2022-11-18T17:23:22.168Z,5.63
2022-11-18T17:25:50.454Z,8.93
2022-11-18T17:28:18.976Z,4.30
2022-11-18T17:30:49.981Z,4.33
2022-11-18T17:33:22.649Z,8.53
2022-11-18T17:36:03.639Z,7.43
2022-11-18T17:43:46.186Z,6.60
2022-11-18T17:46:15.127Z,4.33
2022-11-18T17:48:44.736Z,5.97
2022-11-18T17:51:12.727Z,2.90
2022-11-18T17:53:43.487Z,9.43
2022-11-18T17:56:12.696Z,6.97
2022-11-18T17:58:45.307Z,3.93
2022-11-18T18:01:14.983Z,3.87
2022-11-18T18:08:51.106Z,9.53
2022-11-18T18:11:21.276Z,7.40
2022-11-18T18:14:08.539Z,5.23
2022-11-18T18:16:37.187Z,12.73
2022-11-18T18:19:09.858Z,5.53
2022-11-18T18:21:39.209Z,10.23
2022-11-18T18:24:13.178Z,4.43
2022-11-18T18:42:12.303Z,9.20
2022-11-18T18:44:57.866Z,6.10
2022-11-18T18:47:25.629Z,5.27
2022-11-18T18:49:53.905Z,6.17
2022-11-18T18:52:22.669Z,5.43
2022-11-18T18:54:52.918Z,7.63
2022-11-18T18:57:25.565Z,2.90
2022-11-18T19:18:38.886Z,3.27
2022-11-18T19:21:17.016Z,9.47
2022-11-18T19:23:50.753Z,4.27
2022-11-18T19:26:18.838Z,3.80
2022-11-18T19:28:47.562Z,5.10
2022-11-18T19:31:20.767Z,5.83
2022-11-18T19:33:54.205Z,11.70
2022-11-18T19:44:26.847Z,7.30
2022-11-18T19:46:55.128Z,12.30
2022-11-18T19:49:22.944Z,6.73
2022-11-18T19:51:50.863Z,15.37
2022-11-18T19:54:19.942Z,4.70
2022-11-18T19:56:49.091Z,5.60
2022-11-18T19:59:18.093Z,5.30
2022-11-18T20:01:46.719Z,13.00
2022-11-18T20:04:17.458Z,5.77
2022-11-18T20:11:52.892Z,4.43
2022-11-18T20:14:24.904Z,5.93
2022-11-18T20:16:52.941Z,4.67
2022-11-18T20:19:21.768Z,7.53
2022-11-18T20:21:50.454Z,7.67
2022-11-18T20:24:19.256Z,7.20
2022-11-18T20:26:52.005Z,10.33
2022-11-18T20:32:11.821Z,6.17
2022-11-18T20:34:45.015Z,8.47
2022-11-18T20:37:18.787Z,4.77
2022-11-18T20:39:47.866Z,4.90
2022-11-18T20:42:30.428Z,7.27
2022-11-18T20:44:59.906Z,6.67
2022-11-18T20:47:29.175Z,6.33
2022-11-18T20:49:57.683Z,8.83
2022-11-18T20:52:27.178Z,10.20
2022-11-18T21:00:01.353Z,11.33
2022-11-18T21:02:30.379Z,3.50
2022-11-18T21:04:58.931Z,7.77
2022-11-18T21:07:26.954Z,11.17
2022-11-18T21:09:54.881Z,4.20
2022-11-18T21:12:22.975Z,4.83
2022-11-18T21:14:49.748Z,6.43
2022-11-18T21:20:19.886Z,10.07
2022-11-18T21:22:48.929Z,7.30
2022-11-18T21:25:17.586Z,11.47
2022-11-18T21:27:49.780Z,11.53
2022-11-18T21:30:19.595Z,13.53
2022-11-18T21:32:48.009Z,14.87
2022-11-18T21:35:21.534Z,12.37
2022-11-18T21:37:49.329Z,14.57
2022-11-18T21:45:23.546Z,95.93
2022-11-18T21:47:53.768Z,32.67
2022-11-18T21:50:22.316Z,15.37
2022-11-18T21:52:55.935Z,81.33
2022-11-18T21:55:25.038Z,9.30
2022-11-18T21:58:02.659Z,16.07
2022-11-18T22:00:32.688Z,98.87
2022-11-18T22:08:11.325Z,15.23
2022-11-18T22:10:39.643Z,2.87
2022-11-18T22:13:10.242Z,4.67
2022-11-18T22:15:40.975Z,3.67
2022-11-18T22:18:09.394Z,3.40
2022-11-18T22:20:38.368Z,3.70
2022-11-18T22:23:11.685Z,14.53
2022-11-18T22:25:39.133Z,19.90
2022-11-18T22:41:30.726Z,3.83
2022-11-18T22:44:07.045Z,3.63
2022-11-18T22:46:35.647Z,3.80
2022-11-18T22:49:03.660Z,6.63
2022-11-18T22:51:31.732Z,4.23
2022-11-18T22:54:37.614Z,22.07
2022-11-18T22:56:50.459Z,4.67
2022-11-18T23:17:30.995Z,182.93
2022-11-18T23:19:58.429Z,8.37
2022-11-18T23:22:25.855Z,258.00
2022-11-18T23:24:53.325Z,16.00
2022-11-18T23:27:20.955Z,12.33
2022-11-18T23:29:48.915Z,107.10
2022-11-18T23:32:16.970Z,40.13
2022-11-18T23:34:45.807Z,8.20
2022-11-18T23:42:14.826Z,11.03
2022-11-18T23:44:45.223Z,10.13
2022-11-18T23:47:13.318Z,8.60
2022-11-18T23:49:40.667Z,7.80
2022-11-18T23:52:08.212Z,7.27
2022-11-18T23:54:35.660Z,7.27
2022-11-18T23:57:05.497Z,9.47
2022-11-18T23:59:34.715Z,8.03
